Time;durP1;ratioP1;P1;durP2;ratioP2;P2;SDS_P1;SDS_P2;PMS_P1;PMS_P2;Temp;Humidity;BMP_temperature;BMP_pressure;BME280_temperature;BME280_humidity;BME280_pressure;Samples;Min_cycle;Max_cycle;Signal;HPM_P1;HPM_P2
2022/09/14 00:01:27;;;;;;;9.30;4.80;;;23.90;71.70;;;-142.21;94.07;112049.66;5095838;28;20651;-77
2022/09/14 00:03:57;;;;;;;8.97;5.20;;;23.90;72.00;;;-142.21;95.05;112049.66;5115095;28;20210;-77
2022/09/14 00:06:25;;;;;;;7.70;5.60;;;23.90;72.40;;;-142.21;95.38;112049.66;5113813;28;20191;-79
2022/09/14 00:08:54;;;;;;;5.90;5.30;;;23.90;72.80;;;-142.21;95.51;112049.66;5114158;28;20232;-79
2022/09/14 00:11:25;;;;;;;6.87;5.37;;;23.90;73.10;;;-142.21;96.23;112049.66;5132994;27;20234;-78
2022/09/14 00:13:56;;;;;;;7.97;6.10;;;23.90;73.50;;;-142.21;96.34;112049.66;5135005;27;20631;-78
2022/09/14 00:16:27;;;;;;;10.13;6.23;;;23.80;73.40;;;-142.21;96.53;112049.66;5134926;27;20523;-79
2022/09/14 00:18:57;;;;;;;7.60;6.07;;;23.90;73.60;;;-142.21;96.98;112049.66;5134708;27;20202;-78
2022/09/14 00:21:25;;;;;;;6.10;5.50;;;23.80;73.70;;;-142.21;96.87;112049.66;5134216;27;20643;-77
2022/09/14 00:23:53;;;;;;;6.97;5.87;;;23.80;73.90;;;-142.21;96.92;112049.66;5134439;27;20202;-76
2022/09/14 00:26:22;;;;;;;7.93;5.63;;;23.80;73.90;;;-142.21;97.75;112049.66;5116090;27;20227;-77
2022/09/14 00:28:54;;;;;;;7.33;6.63;;;23.80;74.40;;;-142.21;97.99;112049.66;5134544;27;20206;-77
2022/09/14 00:31:26;;;;;;;7.17;6.47;;;23.80;74.70;;;-142.21;97.60;112049.66;5133711;27;20237;-78
2022/09/14 00:33:55;;;;;;;6.27;5.37;;;23.80;74.40;;;-142.21;97.93;112049.66;5135111;27;20284;-78
2022/09/14 00:36:25;;;;;;;6.97;5.67;;;23.70;74.30;;;-142.21;97.26;112049.66;5134202;27;20206;-78
2022/09/14 00:38:55;;;;;;;5.93;5.30;;;23.70;73.90;;;-142.21;97.02;112049.66;5133777;27;20559;-79
2022/09/14 00:41:26;;;;;;;8.27;5.17;;;23.70;73.80;;;-142.21;97.09;112049.66;5134111;27;20217;-78
2022/09/14 00:44:01;;;;;;;5.47;4.70;;;23.70;74.10;;;-142.21;97.33;112049.66;5115777;27;20677;-77
2022/09/14 00:46:31;;;;;;;5.63;4.60;;;23.70;74.40;;;-142.21;97.29;112049.66;5133564;27;20194;-78
2022/09/14 00:49:06;;;;;;;8.10;5.47;;;23.60;74.10;;;-142.21;97.40;112049.66;5134195;27;20183;-78
2022/09/14 00:51:36;;;;;;;6.23;5.57;;;23.70;75.00;;;-142.21;97.77;112049.66;5133969;27;20190;-79
2022/09/14 00:54:05;;;;;;;8.47;5.30;;;23.60;74.40;;;-142.21;97.82;112049.66;5133929;27;20210;-75
2022/09/14 00:56:33;;;;;;;8.53;5.03;;;23.60;74.80;;;-142.21;97.80;112049.66;5133046;27;20205;-78
2022/09/14 00:59:11;;;;;;;5.60;4.97;;;23.60;74.60;;;-142.21;97.92;112049.66;5134096;27;20227;-76
2022/09/14 01:01:41;;;;;;;6.20;5.27;;;23.60;75.00;;;-142.21;97.88;112049.66;5133838;27;20212;-76
2022/09/14 01:04:08;;;;;;;6.20;5.60;;;23.60;75.00;;;-142.21;98.23;112049.66;5134293;27;20199;-77
2022/09/14 01:06:49;;;;;;;6.73;5.57;;;23.60;75.00;;;-142.21;98.53;112049.66;5133379;27;20207;-78
2022/09/14 01:09:30;;;;;;;7.63;5.70;;;23.60;75.40;;;-142.21;98.48;112049.66;5117154;27;20205;-79
2022/09/14 01:12:14;;;;;;;8.37;5.87;;;23.60;75.50;;;-142.21;98.64;112049.66;5134022;27;20191;-79
2022/09/14 01:14:59;;;;;;;7.00;5.60;;;23.60;75.50;;;-142.21;98.60;112049.66;5117079;27;21138;-77
2022/09/14 01:17:38;;;;;;;7.50;6.40;;;23.60;75.60;;;-142.21;98.77;112049.66;5115265;27;20194;-78
2022/09/14 01:20:25;;;;;;;6.57;5.87;;;23.50;75.40;;;-142.21;99.17;112049.66;5133705;27;20183;-78
2022/09/14 01:23:05;;;;;;;7.23;5.57;;;23.60;76.10;;;-142.21;99.79;112049.66;5133050;27;20210;-76
2022/09/14 01:26:06;;;;;;;7.40;6.43;;;23.50;75.70;;;-142.21;100.00;112049.66;5112796;28;20627;-78
2022/09/14 01:28:43;;;;;;;8.00;6.10;;;23.40;76.50;;;-142.21;100.00;112049.66;5101522;28;20203;-77
2022/09/14 01:31:20;;;;;;;9.17;6.60;;;23.20;77.00;;;-142.21;100.00;112049.66;5130441;27;20253;-78
2022/09/14 01:33:59;;;;;;;8.40;6.53;;;23.20;77.20;;;-142.21;100.00;112049.66;5146083;27;20280;-78
2022/09/14 01:36:33;;;;;;;8.33;6.90;;;23.10;78.00;;;-142.21;100.00;112049.66;5135071;27;20195;-78
2022/09/14 01:39:02;;;;;;;9.60;7.03;;;23.00;78.20;;;-142.21;100.00;112049.66;5147821;27;20217;-78
2022/09/14 01:41:32;;;;;;;9.63;7.47;;;22.90;79.00;;;-142.21;100.00;112049.66;5114822;28;20289;-76
2022/09/14 01:44:08;;;;;;;8.03;7.23;;;22.80;79.60;;;-142.21;100.00;112049.66;5133993;28;20214;-79
2022/09/14 01:46:42;;;;;;;8.60;7.00;;;22.70;80.30;;;-142.21;100.00;112049.66;5133495;28;20229;-80
2022/09/14 01:49:18;;;;;;;8.27;7.47;;;22.70;80.10;;;-142.21;100.00;112049.66;5133297;28;20540;-78
2022/09/14 01:51:51;;;;;;;10.63;8.07;;;22.80;80.70;;;-142.21;100.00;112049.66;5132380;28;20187;-79
2022/09/14 01:54:26;;;;;;;11.53;8.30;;;22.90;80.40;;;-142.21;100.00;112049.66;5133693;28;20279;-79
2022/09/14 01:57:00;;;;;;;11.17;7.77;;;22.90;80.10;;;-142.21;100.00;112049.66;5133288;28;20183;-79
2022/09/14 01:59:34;;;;;;;11.47;7.70;;;22.90;80.60;;;-142.21;100.00;112049.66;5132290;28;20207;-79
2022/09/14 02:02:09;;;;;;;10.83;7.20;;;22.90;80.50;;;-142.21;100.00;112049.66;5133868;28;20292;-79
2022/09/14 02:04:46;;;;;;;10.07;7.80;;;23.00;80.10;;;-142.21;100.00;112049.66;5132201;28;20202;-78
2022/09/14 02:07:13;;;;;;;9.30;7.13;;;23.00;80.40;;;-142.21;100.00;112049.66;5099305;28;20222;-79
2022/09/14 02:09:44;;;;;;;11.43;7.43;;;23.10;80.10;;;-142.21;100.00;112049.66;5132842;28;20199;-79
2022/09/14 02:12:11;;;;;;;11.40;7.87;;;23.10;80.30;;;-142.21;100.00;112049.66;5095472;28;20209;-79
2022/09/14 02:14:40;;;;;;;9.57;7.67;;;23.00;80.10;;;-142.21;100.00;112049.66;5094284;28;20311;-79
2022/09/14 02:17:08;;;;;;;10.80;8.07;;;23.00;80.40;;;-142.21;100.00;112049.66;5112251;28;20195;-79
2022/09/14 02:19:44;;;;;;;12.47;7.73;;;23.00;80.40;;;-142.21;100.00;112049.66;5132018;28;20237;-79
2022/09/14 02:22:11;;;;;;;11.47;8.17;;;23.00;80.40;;;-142.21;100.00;112049.66;5133067;28;20186;-79
2022/09/14 02:24:39;;;;;;;11.47;8.37;;;23.00;80.20;;;-142.21;100.00;112049.66;5112142;28;20230;-78
2022/09/14 02:27:07;;;;;;;11.53;8.37;;;22.90;80.20;;;-142.21;100.00;112049.66;5112636;28;20207;-79
2022/09/14 02:29:35;;;;;;;9.20;8.10;;;22.90;80.60;;;-142.21;100.00;112049.66;5112821;28;20554;-79
2022/09/14 02:32:21;;;;;;;14.00;9.10;;;22.90;81.20;;;-142.21;100.00;112049.66;5132553;28;20232;-79
2022/09/14 02:35:03;;;;;;;12.03;9.17;;;22.80;82.00;;;-142.21;100.00;112049.66;5132986;27;20195;-78
2022/09/14 02:37:47;;;;;;;9.27;8.07;;;22.70;82.00;;;-142.21;100.00;112049.66;5120521;27;20248;-78
2022/09/14 02:40:28;;;;;;;12.33;8.63;;;22.70;82.20;;;-142.21;100.00;112049.66;5136552;27;20214;-78
2022/09/14 02:43:12;;;;;;;10.30;8.67;;;22.70;82.00;;;-142.21;100.00;112049.66;5137077;27;20240;-78
2022/09/14 02:45:48;;;;;;;11.73;9.60;;;22.80;82.00;;;-142.21;100.00;112049.66;5136277;27;20205;-78
2022/09/14 02:48:27;;;;;;;10.27;8.50;;;22.80;81.90;;;-142.21;100.00;112049.66;5100331;27;20209;-77
2022/09/14 02:51:08;;;;;;;11.13;8.53;;;22.80;82.20;;;-142.21;100.00;112049.66;5136698;27;20214;-79
2022/09/14 02:53:42;;;;;;;10.60;8.50;;;22.80;82.20;;;-142.21;100.00;112049.66;5136430;27;20638;-77
2022/09/14 02:56:12;;;;;;;10.10;8.97;;;22.80;81.70;;;-142.21;100.00;112049.66;5137019;27;20195;-79
2022/09/14 02:58:43;;;;;;;10.73;8.33;;;22.80;81.80;;;-142.21;100.00;112049.66;5118074;27;20239;-77
2022/09/14 03:01:13;;;;;;;9.53;8.27;;;22.80;81.60;;;-142.21;100.00;112049.66;5136109;27;20219;-77
2022/09/14 03:03:42;;;;;;;9.80;8.00;;;22.80;81.90;;;-142.21;100.00;112049.66;5135808;27;20195;-80
2022/09/14 03:06:10;;;;;;;10.30;7.90;;;22.80;81.80;;;-142.21;100.00;112049.66;5136587;27;20294;-79
2022/09/14 03:08:37;;;;;;;9.53;8.50;;;22.80;81.70;;;-142.21;100.00;112049.66;5135634;27;20241;-79
2022/09/14 03:11:06;;;;;;;10.73;8.33;;;22.80;82.00;;;-142.21;100.00;112049.66;5135602;27;20659;-80
2022/09/14 03:13:34;;;;;;;11.10;8.73;;;22.80;82.20;;;-142.21;100.00;112049.66;5135568;27;20206;-78
2022/09/14 03:16:06;;;;;;;11.93;9.50;;;22.80;82.10;;;-142.21;100.00;112049.66;5136182;27;20570;-78
2022/09/14 03:18:33;;;;;;;10.10;8.40;;;22.80;82.00;;;-142.21;100.00;112049.66;5134296;27;20226;-78
2022/09/14 03:21:07;;;;;;;10.33;8.70;;;22.80;81.80;;;-142.21;100.00;112049.66;5135475;27;20210;-77
2022/09/14 03:23:37;;;;;;;10.27;8.60;;;22.80;81.90;;;-142.21;100.00;112049.66;5135730;27;20210;-79
2022/09/14 03:26:08;;;;;;;9.70;8.00;;;22.80;82.00;;;-142.21;100.00;112049.66;5135535;27;20230;-79
2022/09/14 03:28:36;;;;;;;12.83;9.17;;;22.80;82.10;;;-142.21;100.00;112049.66;5100224;27;20187;-79
2022/09/14 03:31:06;;;;;;;11.00;9.23;;;22.80;81.90;;;-142.21;100.00;112049.66;5135405;27;20699;-79
2022/09/14 03:33:34;;;;;;;11.10;8.50;;;22.80;81.90;;;-142.21;100.00;112049.66;5134264;27;20192;-79
2022/09/14 03:36:11;;;;;;;11.40;8.60;;;22.80;82.00;;;-142.21;100.00;112049.66;5135717;27;20213;-79
2022/09/14 03:38:38;;;;;;;11.97;9.43;;;22.80;82.00;;;-142.21;100.00;112049.66;5135565;27;20264;-79
2022/09/14 03:41:12;;;;;;;9.63;8.63;;;22.80;82.00;;;-142.21;100.00;112049.66;5135545;27;20195;-78
2022/09/14 03:43:39;;;;;;;11.97;9.10;;;22.80;82.40;;;-142.21;100.00;112049.66;5135042;27;20646;-78
2022/09/14 03:46:08;;;;;;;11.57;9.43;;;22.80;82.50;;;-142.21;100.00;112049.66;5134711;27;20226;-77
2022/09/14 03:48:35;;;;;;;11.70;9.33;;;22.70;82.50;;;-142.21;100.00;112049.66;5135033;27;20222;-79
2022/09/14 03:51:05;;;;;;;9.93;8.67;;;22.80;82.40;;;-142.21;100.00;112049.66;5135449;27;20198;-78
2022/09/14 03:53:35;;;;;;;12.33;8.97;;;22.70;82.40;;;-142.21;100.00;112049.66;5114202;28;20206;-78
2022/09/14 03:56:08;;;;;;;10.37;8.60;;;22.80;82.50;;;-142.21;100.00;112049.66;5114961;28;20203;-78
2022/09/14 03:58:35;;;;;;;9.93;8.63;;;22.70;82.50;;;-142.21;100.00;112049.66;5114214;28;20219;-77
2022/09/14 04:01:06;;;;;;;10.37;8.63;;;22.70;83.20;;;-142.21;100.00;112049.66;5113961;28;20652;-78
2022/09/14 04:03:34;;;;;;;10.70;7.77;;;22.70;82.80;;;-142.21;100.00;112049.66;5114199;28;20208;-78
2022/09/14 04:06:04;;;;;;;9.60;7.47;;;22.70;82.60;;;-142.21;100.00;112049.66;5114975;28;20294;-80
2022/09/14 04:08:33;;;;;;;9.87;8.37;;;22.70;82.30;;;-142.21;100.00;112049.66;5114715;28;20212;-79
2022/09/14 04:11:06;;;;;;;9.77;7.90;;;22.70;82.50;;;-142.21;100.00;112049.66;5096677;28;20214;-78
2022/09/14 04:13:34;;;;;;;10.50;8.20;;;22.60;82.90;;;-142.21;100.00;112049.66;5114082;28;20196;-77
2022/09/14 04:16:02;;;;;;;8.03;7.23;;;22.50;83.00;;;-142.21;100.00;112049.66;5061622;28;20218;-79
2022/09/14 04:18:29;;;;;;;8.63;7.33;;;22.40;83.50;;;-142.21;100.00;112049.66;5114027;28;20214;-79
2022/09/14 04:20:58;;;;;;;10.17;7.07;;;22.50;83.80;;;-142.21;100.00;112049.66;5061826;28;20229;-79
2022/09/14 04:23:26;;;;;;;9.60;7.57;;;22.50;83.80;;;-142.21;100.00;112049.66;5118815;27;20199;-78
2022/09/14 04:25:55;;;;;;;7.87;6.90;;;22.50;83.50;;;-142.21;100.00;112049.66;5133720;27;20214;-78
2022/09/14 04:28:24;;;;;;;8.60;7.13;;;22.50;83.40;;;-142.21;100.00;112049.66;5134940;27;20280;-78
2022/09/14 04:30:59;;;;;;;8.67;7.03;;;22.50;83.50;;;-142.21;100.00;112049.66;5133325;27;20207;-80
2022/09/14 04:33:30;;;;;;;8.97;6.67;;;22.50;83.50;;;-142.21;100.00;112049.66;5117818;27;20199;-79
2022/09/14 04:36:01;;;;;;;7.67;6.90;;;22.60;83.20;;;-142.21;100.00;112049.66;5116129;27;20196;-76
2022/09/14 04:38:29;;;;;;;8.07;6.97;;;22.50;83.10;;;-142.21;100.00;112049.66;5110712;27;20199;-76
2022/09/14 04:40:58;;;;;;;9.73;6.93;;;22.50;83.20;;;-142.21;100.00;112049.66;5133883;27;20234;-76
2022/09/14 04:43:27;;;;;;;7.97;6.97;;;22.50;83.20;;;-142.21;100.00;112049.66;5114198;27;20195;-76
2022/09/14 04:46:00;;;;;;;8.60;7.47;;;22.50;83.60;;;-142.21;100.00;112049.66;5132693;27;20207;-76
2022/09/14 04:48:32;;;;;;;8.67;7.10;;;22.50;83.50;;;-142.21;100.00;112049.66;5116064;27;20199;-76
2022/09/14 04:51:02;;;;;;;8.57;7.67;;;22.50;83.50;;;-142.21;100.00;112049.66;5136068;27;20191;-76
2022/09/14 04:53:30;;;;;;;10.63;8.33;;;22.50;83.30;;;-142.21;100.00;112049.66;5118903;27;20191;-77
2022/09/14 04:56:04;;;;;;;8.73;7.80;;;22.50;83.10;;;-142.21;100.00;112049.66;5133302;27;20201;-79
2022/09/14 04:58:32;;;;;;;9.83;7.57;;;22.50;83.30;;;-142.21;100.00;112049.66;5133545;27;20195;-79
2022/09/14 05:01:02;;;;;;;9.17;8.23;;;22.50;83.20;;;-142.21;100.00;112049.66;5133323;27;20702;-75
2022/09/14 05:03:30;;;;;;;8.73;7.70;;;22.40;83.20;;;-142.21;100.00;112049.66;5133649;27;20188;-77
2022/09/14 05:06:02;;;;;;;8.70;7.77;;;22.40;83.70;;;-142.21;100.00;112049.66;5133460;27;20231;-77
2022/09/14 05:08:30;;;;;;;9.70;7.90;;;22.30;83.70;;;-142.21;100.00;112049.66;5133980;27;20217;-77
2022/09/14 05:10:58;;;;;;;10.67;8.00;;;22.40;83.70;;;-142.21;100.00;112049.66;5133063;27;20206;-76
2022/09/14 05:13:27;;;;;;;9.67;8.20;;;22.40;83.90;;;-142.21;100.00;112049.66;5133079;27;20256;-79
2022/09/14 05:15:54;;;;;;;10.83;8.37;;;22.30;84.00;;;-142.21;100.00;112049.66;5132827;27;20260;-79
2022/09/14 05:18:22;;;;;;;8.30;7.40;;;22.20;84.10;;;-142.21;100.00;112049.66;5133799;27;20202;-81
2022/09/14 05:20:49;;;;;;;9.73;8.53;;;22.20;84.20;;;-142.21;100.00;112049.66;5132714;27;20717;-75
2022/09/14 05:23:16;;;;;;;10.20;8.50;;;22.20;84.70;;;-142.21;100.00;112049.66;5113634;27;20199;-76
2022/09/14 05:25:43;;;;;;;10.20;9.07;;;22.20;84.80;;;-142.21;100.00;112049.66;5133110;27;20223;-76
2022/09/14 05:28:11;;;;;;;9.00;7.33;;;22.20;85.00;;;-142.21;100.00;112049.66;5132666;27;20531;-75
2022/09/14 05:30:41;;;;;;;8.73;7.83;;;22.10;85.00;;;-142.21;100.00;112049.66;5130840;27;20202;-80
2022/09/14 05:33:08;;;;;;;9.53;8.53;;;22.20;85.30;;;-142.21;100.00;112049.66;5133532;27;20223;-79
2022/09/14 05:35:38;;;;;;;10.13;8.17;;;22.10;85.00;;;-142.21;100.00;112049.66;5133404;27;20252;-77
2022/09/14 05:38:06;;;;;;;10.17;7.73;;;22.10;85.50;;;-142.21;100.00;112049.66;5133603;27;20188;-78
2022/09/14 05:40:33;;;;;;;12.37;8.47;;;22.10;86.20;;;-142.21;100.00;112049.66;5133385;28;20313;-78
2022/09/14 05:43:00;;;;;;;8.47;7.57;;;22.20;85.40;;;-142.21;100.00;112049.66;5132561;28;20597;-78
2022/09/14 05:45:28;;;;;;;11.03;8.60;;;22.20;85.50;;;-142.21;100.00;112049.66;5133188;28;20214;-78
2022/09/14 05:48:00;;;;;;;11.47;9.30;;;22.30;85.50;;;-142.21;100.00;112049.66;5132874;28;20616;-78
2022/09/14 05:50:27;;;;;;;9.33;8.43;;;22.30;85.50;;;-142.21;100.00;112049.66;5133358;28;20179;-80
2022/09/14 05:52:55;;;;;;;10.33;9.23;;;22.30;85.50;;;-142.21;100.00;112049.66;5132777;28;20183;-77
2022/09/14 05:55:22;;;;;;;9.53;8.40;;;22.30;85.60;;;-142.21;100.00;112049.66;5133075;28;20206;-78
2022/09/14 05:57:50;;;;;;;10.73;9.63;;;22.30;85.80;;;-142.21;100.00;112049.66;5132283;28;20285;-79
2022/09/14 06:00:17;;;;;;;13.67;9.40;;;22.30;85.70;;;-142.21;100.00;112049.66;5133105;28;20628;-78
2022/09/14 06:02:47;;;;;;;10.07;8.97;;;22.30;85.70;;;-142.21;100.00;112049.66;5132339;28;20251;-79
2022/09/14 06:05:16;;;;;;;10.77;9.30;;;22.40;85.70;;;-142.21;100.00;112049.66;5133305;28;20290;-79
2022/09/14 06:07:44;;;;;;;13.03;9.60;;;22.40;85.90;;;-142.21;100.00;112049.66;5132443;28;20235;-80
2022/09/14 06:10:12;;;;;;;10.17;9.17;;;22.40;86.00;;;-142.21;100.00;112049.66;5136554;27;20238;-80
2022/09/14 06:12:39;;;;;;;12.53;9.87;;;22.50;85.80;;;-142.21;100.00;112049.66;5135866;27;20249;-79
2022/09/14 06:15:09;;;;;;;11.67;9.90;;;22.60;85.90;;;-142.21;100.00;112049.66;5136881;27;20230;-78
2022/09/14 06:17:38;;;;;;;10.67;9.57;;;22.60;85.80;;;-142.21;100.00;112049.66;5119238;27;20203;-79
2022/09/14 06:20:07;;;;;;;11.80;9.87;;;22.50;85.20;;;-142.21;100.00;112049.66;5116547;28;20646;-78
2022/09/14 06:22:36;;;;;;;12.37;10.00;;;22.60;85.60;;;-142.21;100.00;112049.66;5119476;27;20244;-78
2022/09/14 06:25:03;;;;;;;14.47;10.30;;;22.60;85.60;;;-142.21;100.00;112049.66;5136520;27;20258;-80
2022/09/14 06:27:30;;;;;;;12.40;10.23;;;22.50;85.70;;;-142.21;100.00;112049.66;5136701;27;20231;-80
2022/09/14 06:29:58;;;;;;;11.30;9.80;;;22.60;85.70;;;-142.21;100.00;112049.66;5136494;27;20207;-77
2022/09/14 06:32:26;;;;;;;13.57;9.97;;;22.60;85.40;;;-142.21;100.00;112049.66;5136539;27;20274;-79
2022/09/14 06:34:53;;;;;;;12.40;9.90;;;22.60;85.80;;;-142.21;100.00;112049.66;5118356;27;20256;-78
2022/09/14 06:37:20;;;;;;;12.40;10.30;;;22.50;85.70;;;-142.21;100.00;112049.66;5136610;27;20754;-80
2022/09/14 06:39:49;;;;;;;13.67;11.37;;;22.60;85.90;;;-142.21;100.00;112049.66;5135966;27;20707;-78
2022/09/14 06:42:16;;;;;;;11.93;10.70;;;22.60;86.90;;;-142.21;100.00;112049.66;5136032;27;20259;-78
2022/09/14 06:44:43;;;;;;;13.60;11.20;;;22.70;86.00;;;-142.21;100.00;112049.66;5136259;27;20206;-80
2022/09/14 06:47:11;;;;;;;12.77;9.73;;;22.70;86.00;;;-142.21;100.00;112049.66;5136372;27;20296;-79
2022/09/14 06:49:38;;;;;;;14.43;10.60;;;22.80;86.40;;;-142.21;100.00;112049.66;5118630;27;20199;-78
2022/09/14 06:52:06;;;;;;;12.00;9.90;;;22.80;85.70;;;-142.21;100.00;112049.66;5136541;27;20203;-80
2022/09/14 06:54:33;;;;;;;13.23;10.63;;;22.80;85.10;;;-142.21;100.00;112049.66;5136257;27;20248;-80
2022/09/14 06:57:02;;;;;;;13.67;11.53;;;22.70;85.50;;;-142.21;100.00;112049.66;5135695;27;20214;-78
2022/09/14 06:59:29;;;;;;;14.43;11.47;;;22.70;85.60;;;-142.21;100.00;112049.66;5136404;27;20298;-79
2022/09/14 07:01:56;;;;;;;11.47;10.10;;;22.70;86.10;;;-142.21;100.00;112049.66;5136001;27;20209;-80
2022/09/14 07:04:24;;;;;;;12.47;10.83;;;22.70;86.20;;;-142.21;100.00;112049.66;5136370;27;20199;-79
2022/09/14 07:06:52;;;;;;;14.73;11.37;;;22.60;86.40;;;-142.21;100.00;112049.66;5135465;27;20693;-79
2022/09/14 07:09:20;;;;;;;14.90;11.37;;;22.70;86.90;;;-142.21;100.00;112049.66;5135638;27;20234;-77
2022/09/14 07:11:48;;;;;;;18.67;12.20;;;22.70;86.80;;;-142.21;100.00;112049.66;5117294;27;20562;-79
2022/09/14 07:14:16;;;;;;;13.70;11.73;;;22.80;86.70;;;-142.21;100.00;112049.66;5136248;27;20207;-80
2022/09/14 07:16:43;;;;;;;11.73;10.53;;;22.80;86.10;;;-142.21;100.00;112049.66;5117475;27;20604;-80
2022/09/14 07:19:14;;;;;;;12.83;11.37;;;22.90;86.20;;;-142.21;100.00;112049.66;5136164;27;20199;-80
2022/09/14 07:21:42;;;;;;;13.47;11.57;;;22.90;86.40;;;-142.21;100.00;112049.66;5135122;27;20246;-80
2022/09/14 07:24:11;;;;;;;12.83;10.70;;;23.00;86.40;;;-142.21;100.00;112049.66;5135232;27;20246;-79
2022/09/14 07:26:41;;;;;;;13.73;11.47;;;23.10;86.50;;;-142.21;100.00;112049.66;5135883;27;20201;-81
2022/09/14 07:29:12;;;;;;;13.27;11.33;;;23.10;85.70;;;-142.21;100.00;112049.66;5136448;27;20195;-78
2022/09/14 07:31:45;;;;;;;12.40;10.10;;;23.10;85.90;;;-142.21;100.00;112049.66;5135404;27;20231;-80
2022/09/14 07:34:12;;;;;;;13.93;10.83;;;23.10;86.20;;;-142.21;100.00;112049.66;5135798;27;20236;-79
2022/09/14 07:36:41;;;;;;;12.63;9.53;;;23.10;86.40;;;-142.21;100.00;112049.66;5135397;27;20660;-80
2022/09/14 07:39:12;;;;;;;11.77;10.07;;;23.20;86.60;;;-142.21;100.00;112049.66;5135230;27;20248;-79
2022/09/14 07:41:39;;;;;;;14.30;10.97;;;23.30;85.70;;;-142.21;100.00;112049.66;5135604;27;20214;-79
2022/09/14 07:44:09;;;;;;;12.07;10.20;;;23.20;85.70;;;-142.21;100.00;112049.66;5135012;27;20294;-80
2022/09/14 07:46:42;;;;;;;12.63;10.03;;;23.10;86.40;;;-142.21;100.00;112049.66;5135294;27;20211;-80
2022/09/14 07:49:11;;;;;;;12.33;10.87;;;23.10;86.60;;;-142.21;100.00;112049.66;5116958;27;20231;-78
2022/09/14 07:51:39;;;;;;;12.33;10.87;;;23.10;87.30;;;-142.21;100.00;112049.66;5135034;27;20678;-80
2022/09/14 07:54:11;;;;;;;13.13;9.90;;;23.20;87.60;;;-142.21;100.00;112049.66;5134142;27;20199;-80
2022/09/14 07:56:39;;;;;;;12.37;10.23;;;23.30;87.90;;;-142.21;100.00;112049.66;5135130;27;20283;-80
2022/09/14 07:59:06;;;;;;;13.40;10.27;;;23.40;87.80;;;-142.21;100.00;112049.66;5134735;27;20203;-79
2022/09/14 08:01:34;;;;;;;11.17;10.03;;;23.40;87.40;;;-142.21;100.00;112049.66;5134845;27;20254;-79
2022/09/14 08:04:03;;;;;;;11.70;10.23;;;23.40;87.50;;;-142.21;100.00;112049.66;5134669;27;20631;-80
2022/09/14 08:06:31;;;;;;;12.50;10.53;;;23.50;87.60;;;-142.21;100.00;112049.66;5134905;27;20212;-79
2022/09/14 08:08:59;;;;;;;9.93;8.93;;;23.60;87.30;;;-142.21;100.00;112049.66;5115709;27;20199;-79
2022/09/14 08:11:29;;;;;;;12.10;9.37;;;23.80;87.20;;;-142.21;100.00;112049.66;5135044;27;20201;-79
2022/09/14 08:14:00;;;;;;;10.77;8.90;;;23.70;86.90;;;-142.21;100.00;112049.66;5134088;27;20184;-79
2022/09/14 08:16:30;;;;;;;12.07;8.50;;;23.70;87.90;;;-142.21;100.00;112049.66;5134669;27;20189;-78
2022/09/14 08:19:01;;;;;;;12.33;9.57;;;23.70;87.20;;;-142.21;100.00;112049.66;5134082;27;20183;-79
2022/09/14 08:21:32;;;;;;;10.27;9.17;;;23.70;87.30;;;-142.21;100.00;112049.66;5134826;27;20296;-79
2022/09/14 08:24:01;;;;;;;11.53;8.07;;;23.80;87.90;;;-142.21;100.00;112049.66;5133838;27;20219;-79
2022/09/14 08:26:29;;;;;;;10.77;8.17;;;23.80;88.30;;;-142.21;100.00;112049.66;5134356;27;20233;-77
2022/09/14 08:28:58;;;;;;;7.47;6.33;;;23.80;88.10;;;-142.21;100.00;112049.66;5134266;27;20210;-78
2022/09/14 08:31:28;;;;;;;9.43;6.90;;;24.00;88.20;;;-142.21;100.00;112049.66;5134029;27;20227;-79
2022/09/14 08:33:58;;;;;;;6.93;5.87;;;24.20;87.90;;;-142.21;100.00;112049.66;5133510;27;20293;-78
2022/09/14 08:36:31;;;;;;;5.23;4.73;;;24.40;86.90;;;-142.21;100.00;112049.66;5133958;27;20272;-80
2022/09/14 08:39:00;;;;;;;5.93;5.10;;;24.60;86.40;;;-142.21;100.00;112049.66;5133563;27;20198;-79
2022/09/14 08:41:31;;;;;;;8.03;5.57;;;24.80;86.40;;;-142.21;100.00;112049.66;5134092;27;20226;-79
2022/09/14 08:44:04;;;;;;;5.47;4.57;;;24.90;86.40;;;-142.21;100.00;112049.66;5133885;27;20186;-78
2022/09/14 08:46:35;;;;;;;5.20;4.63;;;25.10;85.80;;;-142.21;100.00;112049.66;5134461;27;20191;-78
2022/09/14 08:49:14;;;;;;;6.00;3.77;;;25.20;85.50;;;-142.21;100.00;112049.66;5133545;27;20187;-79
2022/09/14 08:51:42;;;;;;;5.50;4.50;;;25.40;84.10;;;-142.21;100.00;112049.66;5133952;27;20262;-78
2022/09/14 08:54:11;;;;;;;5.90;4.00;;;25.60;83.80;;;-142.21;100.00;112049.66;5133702;27;20230;-79
2022/09/14 08:56:44;;;;;;;5.97;4.03;;;25.70;83.40;;;-142.21;100.00;112049.66;5134205;27;20206;-79
2022/09/14 08:59:38;;;;;;;6.97;3.90;;;25.90;82.80;;;-142.21;100.00;112049.66;5133329;27;20188;-78
2022/09/14 09:02:30;;;;;;;6.27;4.30;;;26.00;82.00;;;-142.21;100.00;112049.66;5133246;27;20698;-79
2022/09/14 09:05:15;;;;;;;5.57;3.50;;;25.80;81.60;;;-142.21;100.00;112049.66;5133546;27;20255;-77
2022/09/14 09:07:56;;;;;;;4.47;3.63;;;26.00;82.00;;;-142.21;100.00;112049.66;5133517;27;20244;-78
2022/09/14 09:10:27;;;;;;;4.43;3.50;;;26.10;80.90;;;-142.21;100.00;112049.66;5133713;27;20226;-79
2022/09/14 09:12:59;;;;;;;3.87;3.47;;;26.20;81.00;;;-142.21;100.00;112049.66;5133185;27;20230;-75
2022/09/14 09:15:32;;;;;;;5.20;3.13;;;26.10;80.70;;;-142.21;100.00;112049.66;5133595;27;20192;-79
2022/09/14 09:18:06;;;;;;;4.43;3.93;;;25.90;79.60;;;-142.21;99.89;112049.66;5133167;27;20180;-78
2022/09/14 09:20:40;;;;;;;3.93;3.50;;;25.80;80.20;;;-142.21;100.00;112049.66;5133475;27;20224;-78
2022/09/14 09:23:15;;;;;;;4.70;3.70;;;25.70;80.50;;;-142.21;100.00;112049.66;5133280;27;20199;-77
2022/09/14 09:25:54;;;;;;;4.47;3.20;;;25.70;80.60;;;-142.21;100.00;112049.66;5133925;27;20250;-77
2022/09/14 09:28:23;;;;;;;5.87;3.20;;;25.80;80.90;;;-142.21;100.00;112049.66;5133747;27;20703;-79
2022/09/14 09:30:52;;;;;;;4.33;3.13;;;25.80;80.00;;;-142.21;100.00;112049.66;5132764;27;20203;-79
2022/09/14 09:33:23;;;;;;;6.80;3.50;;;25.70;80.20;;;-142.21;100.00;112049.66;5133674;27;20194;-80
2022/09/14 09:35:51;;;;;;;5.20;3.17;;;25.70;80.20;;;-142.21;99.59;112049.66;5132668;27;20214;-77
2022/09/14 09:38:23;;;;;;;4.10;2.70;;;25.80;79.80;;;-142.21;99.59;112049.66;5133664;27;20210;-79
2022/09/14 09:40:57;;;;;;;4.57;3.27;;;25.90;80.10;;;-142.21;99.11;112049.66;5133145;28;20233;-77
2022/09/14 09:43:24;;;;;;;5.27;3.10;;;26.10;79.90;;;-142.21;97.73;112049.66;5133299;27;20221;-78
2022/09/14 09:46:01;;;;;;;4.37;2.90;;;26.20;78.90;;;-142.21;99.46;112049.66;5133020;28;20205;-78
2022/09/14 09:48:33;;;;;;;2.87;2.63;;;26.40;79.50;;;-142.21;98.45;112049.66;5133231;28;20598;-77
2022/09/14 09:51:08;;;;;;;5.23;3.00;;;26.70;78.70;;;-142.21;96.61;112049.66;5132725;28;20206;-77
2022/09/14 09:53:46;;;;;;;4.53;3.10;;;26.90;77.50;;;-142.21;94.82;112049.66;5133525;28;20186;-79
2022/09/14 09:56:20;;;;;;;6.37;2.80;;;27.00;76.20;;;-142.21;94.24;112049.66;5132945;28;20243;-76
2022/09/14 09:58:50;;;;;;;3.33;2.90;;;27.10;75.90;;;-142.21;94.30;112049.66;5133055;28;20193;-76
2022/09/14 10:01:23;;;;;;;3.20;2.90;;;27.20;75.90;;;-142.21;94.47;112049.66;5133204;28;20671;-78
2022/09/14 10:04:15;;;;;;;5.43;2.77;;;27.40;75.70;;;-142.21;94.37;112049.66;5132712;28;20193;-76
2022/09/14 10:06:45;;;;;;;3.77;2.60;;;27.60;75.40;;;-142.21;92.40;112049.66;5133594;28;20249;-78